sensor_id;sensor_type;location;lat;lon;timestamp;temperature;humidity
71039;SHT30;58692;43.212;27.908;2022-12-18T00:00:27;12.10;78.06
71039;SHT30;58692;43.212;27.908;2022-12-18T00:02:53;12.16;77.90
71039;SHT30;58692;43.212;27.908;2022-12-18T00:05:18;12.18;77.26
71039;SHT30;58692;43.212;27.908;2022-12-18T00:07:44;12.19;77.09
71039;SHT30;58692;43.212;27.908;2022-12-18T00:10:09;12.16;76.58
71039;SHT30;58692;43.212;27.908;2022-12-18T00:12:35;12.20;76.25
71039;SHT30;58692;43.212;27.908;2022-12-18T00:15:00;12.15;76.17
71039;SHT30;58692;43.212;27.908;2022-12-18T00:17:26;12.18;76.28
71039;SHT30;58692;43.212;27.908;2022-12-18T00:19:51;12.16;76.25
71039;SHT30;58692;43.212;27.908;2022-12-18T00:22:17;12.15;76.32
71039;SHT30;58692;43.212;27.908;2022-12-18T00:24:43;12.06;76.62
71039;SHT30;58692;43.212;27.908;2022-12-18T00:27:08;12.09;76.19
71039;SHT30;58692;43.212;27.908;2022-12-18T00:29:34;12.10;76.26
71039;SHT30;58692;43.212;27.908;2022-12-18T00:31:59;12.09;76.33
71039;SHT30;58692;43.212;27.908;2022-12-18T00:34:25;12.03;76.39
71039;SHT30;58692;43.212;27.908;2022-12-18T00:36:50;12.06;76.28
71039;SHT30;58692;43.212;27.908;2022-12-18T00:39:16;11.98;76.68
71039;SHT30;58692;43.212;27.908;2022-12-18T00:41:41;11.90;76.81
71039;SHT30;58692;43.212;27.908;2022-12-18T00:44:22;11.85;76.77
71039;SHT30;58692;43.212;27.908;2022-12-18T00:46:48;11.83;76.67
71039;SHT30;58692;43.212;27.908;2022-12-18T00:49:14;11.83;76.97
71039;SHT30;58692;43.212;27.908;2022-12-18T00:51:41;11.78;76.90
71039;SHT30;58692;43.212;27.908;2022-12-18T00:54:06;11.77;76.95
71039;SHT30;58692;43.212;27.908;2022-12-18T00:56:32;11.72;76.97
71039;SHT30;58692;43.212;27.908;2022-12-18T00:58:57;11.74;76.95
71039;SHT30;58692;43.212;27.908;2022-12-18T01:01:23;11.78;77.20
71039;SHT30;58692;43.212;27.908;2022-12-18T01:03:48;11.81;76.99
71039;SHT30;58692;43.212;27.908;2022-12-18T01:06:15;11.77;77.05
71039;SHT30;58692;43.212;27.908;2022-12-18T01:08:41;11.82;77.06
71039;SHT30;58692;43.212;27.908;2022-12-18T01:11:10;11.78;77.00
71039;SHT30;58692;43.212;27.908;2022-12-18T01:13:35;11.75;77.13
71039;SHT30;58692;43.212;27.908;2022-12-18T01:16:01;11.79;77.04
71039;SHT30;58692;43.212;27.908;2022-12-18T01:18:26;11.79;77.21
71039;SHT30;58692;43.212;27.908;2022-12-18T01:20:52;11.78;77.25
71039;SHT30;58692;43.212;27.908;2022-12-18T01:23:17;11.82;77.26
71039;SHT30;58692;43.212;27.908;2022-12-18T01:25:43;11.81;77.13
71039;SHT30;58692;43.212;27.908;2022-12-18T01:28:08;11.81;76.82
71039;SHT30;58692;43.212;27.908;2022-12-18T01:30:34;11.79;76.93
71039;SHT30;58692;43.212;27.908;2022-12-18T01:32:59;11.77;76.81
71039;SHT30;58692;43.212;27.908;2022-12-18T01:35:24;11.71;76.86
71039;SHT30;58692;43.212;27.908;2022-12-18T01:37:54;11.74;76.96
71039;SHT30;58692;43.212;27.908;2022-12-18T01:40:19;11.72;76.75
71039;SHT30;58692;43.212;27.908;2022-12-18T01:42:50;11.71;76.84
71039;SHT30;58692;43.212;27.908;2022-12-18T01:53:17;11.67;76.90
71039;SHT30;58692;43.212;27.908;2022-12-18T01:55:48;11.64;76.86
71039;SHT30;58692;43.212;27.908;2022-12-18T01:58:14;11.58;76.70
71039;SHT30;58692;43.212;27.908;2022-12-18T02:00:40;11.58;76.79
71039;SHT30;58692;43.212;27.908;2022-12-18T02:03:06;11.57;76.78
71039;SHT30;58692;43.212;27.908;2022-12-18T02:06:01;11.55;76.70
71039;SHT30;58692;43.212;27.908;2022-12-18T02:08:42;11.57;76.75
71039;SHT30;58692;43.212;27.908;2022-12-18T02:22:20;11.54;76.85
71039;SHT30;58692;43.212;27.908;2022-12-18T02:27:32;11.55;76.89
71039;SHT30;58692;43.212;27.908;2022-12-18T02:30:01;11.50;76.99
71039;SHT30;58692;43.212;27.908;2022-12-18T02:32:34;11.34;77.04
71039;SHT30;58692;43.212;27.908;2022-12-18T02:35:02;11.32;77.23
71039;SHT30;58692;43.212;27.908;2022-12-18T02:37:30;11.32;77.54
71039;SHT30;58692;43.212;27.908;2022-12-18T02:39:56;11.34;77.27
71039;SHT30;58692;43.212;27.908;2022-12-18T02:42:23;11.38;77.28
71039;SHT30;58692;43.212;27.908;2022-12-18T02:44:51;11.32;77.39
71039;SHT30;58692;43.212;27.908;2022-12-18T02:47:19;11.31;77.36
71039;SHT30;58692;43.212;27.908;2022-12-18T02:55:43;11.23;77.75
71039;SHT30;58692;43.212;27.908;2022-12-18T02:58:23;11.07;78.02
71039;SHT30;58692;43.212;27.908;2022-12-18T03:00:58;11.07;77.87
71039;SHT30;58692;43.212;27.908;2022-12-18T03:03:31;11.10;77.96
71039;SHT30;58692;43.212;27.908;2022-12-18T03:06:04;11.08;77.89
71039;SHT30;58692;43.212;27.908;2022-12-18T03:08:37;11.01;77.87
71039;SHT30;58692;43.212;27.908;2022-12-18T03:11:07;11.01;77.92
71039;SHT30;58692;43.212;27.908;2022-12-18T03:16:08;11.00;78.21
71039;SHT30;58692;43.212;27.908;2022-12-18T03:18:39;11.01;78.33
71039;SHT30;58692;43.212;27.908;2022-12-18T03:21:08;11.01;78.54
71039;SHT30;58692;43.212;27.908;2022-12-18T03:23:40;11.03;78.80
71039;SHT30;58692;43.212;27.908;2022-12-18T03:26:09;10.97;78.78
71039;SHT30;58692;43.212;27.908;2022-12-18T03:28:41;10.93;78.93
71039;SHT30;58692;43.212;27.908;2022-12-18T03:31:09;11.00;78.62
71039;SHT30;58692;43.212;27.908;2022-12-18T03:33:38;10.99;78.51
71039;SHT30;58692;43.212;27.908;2022-12-18T03:36:05;10.99;78.71
71039;SHT30;58692;43.212;27.908;2022-12-18T03:38:31;10.97;78.74
71039;SHT30;58692;43.212;27.908;2022-12-18T03:43:47;10.97;79.11
71039;SHT30;58692;43.212;27.908;2022-12-18T03:46:22;10.90;79.43
71039;SHT30;58692;43.212;27.908;2022-12-18T03:48:56;10.94;79.16
71039;SHT30;58692;43.212;27.908;2022-12-18T03:51:38;10.94;78.90
71039;SHT30;58692;43.212;27.908;2022-12-18T03:54:06;10.90;78.71
71039;SHT30;58692;43.212;27.908;2022-12-18T03:56:39;11.01;78.47
71039;SHT30;58692;43.212;27.908;2022-12-18T03:59:06;10.94;78.27
71039;SHT30;58692;43.212;27.908;2022-12-18T04:01:38;11.00;78.05
71039;SHT30;58692;43.212;27.908;2022-12-18T04:04:05;11.00;77.95
71039;SHT30;58692;43.212;27.908;2022-12-18T04:06:32;11.13;77.61
71039;SHT30;58692;43.212;27.908;2022-12-18T04:08:59;11.16;77.41
71039;SHT30;58692;43.212;27.908;2022-12-18T04:11:24;11.13;77.05
71039;SHT30;58692;43.212;27.908;2022-12-18T04:13:50;11.03;76.59
71039;SHT30;58692;43.212;27.908;2022-12-18T04:16:20;11.01;76.06
71039;SHT30;58692;43.212;27.908;2022-12-18T04:18:45;11.04;75.05
71039;SHT30;58692;43.212;27.908;2022-12-18T04:21:11;10.94;74.08
71039;SHT30;58692;43.212;27.908;2022-12-18T04:23:36;10.87;74.06
71039;SHT30;58692;43.212;27.908;2022-12-18T04:26:02;10.89;73.93
71039;SHT30;58692;43.212;27.908;2022-12-18T04:28:27;10.81;73.97
71039;SHT30;58692;43.212;27.908;2022-12-18T04:30:52;10.81;73.84
71039;SHT30;58692;43.212;27.908;2022-12-18T04:33:18;10.84;73.67
71039;SHT30;58692;43.212;27.908;2022-12-18T04:35:44;10.80;73.45
71039;SHT30;58692;43.212;27.908;2022-12-18T04:38:10;10.63;73.39
71039;SHT30;58692;43.212;27.908;2022-12-18T04:40:36;10.65;73.75
71039;SHT30;58692;43.212;27.908;2022-12-18T04:43:03;10.67;73.15
71039;SHT30;58692;43.212;27.908;2022-12-18T04:45:30;10.63;73.05
71039;SHT30;58692;43.212;27.908;2022-12-18T04:47:58;10.53;73.25
71039;SHT30;58692;43.212;27.908;2022-12-18T04:50:24;10.45;72.58
71039;SHT30;58692;43.212;27.908;2022-12-18T04:52:50;10.28;72.94
71039;SHT30;58692;43.212;27.908;2022-12-18T04:55:15;10.23;73.26
71039;SHT30;58692;43.212;27.908;2022-12-18T04:57:41;10.09;73.31
71039;SHT30;58692;43.212;27.908;2022-12-18T05:00:07;10.18;72.63
71039;SHT30;58692;43.212;27.908;2022-12-18T05:02:33;10.13;72.65
71039;SHT30;58692;43.212;27.908;2022-12-18T05:04:58;10.03;72.11
71039;SHT30;58692;43.212;27.908;2022-12-18T05:07:24;10.03;72.22
71039;SHT30;58692;43.212;27.908;2022-12-18T05:09:50;9.98;72.43
71039;SHT30;58692;43.212;27.908;2022-12-18T05:12:15;10.08;72.09
71039;SHT30;58692;43.212;27.908;2022-12-18T05:14:41;10.01;72.40
71039;SHT30;58692;43.212;27.908;2022-12-18T05:17:06;9.97;72.70
71039;SHT30;58692;43.212;27.908;2022-12-18T05:19:32;10.09;72.52
71039;SHT30;58692;43.212;27.908;2022-12-18T05:21:57;10.01;73.01
71039;SHT30;58692;43.212;27.908;2022-12-18T05:24:23;9.82;73.13
71039;SHT30;58692;43.212;27.908;2022-12-18T05:26:48;9.82;73.20
71039;SHT30;58692;43.212;27.908;2022-12-18T05:29:14;9.87;72.57
71039;SHT30;58692;43.212;27.908;2022-12-18T05:31:39;9.75;72.39
71039;SHT30;58692;43.212;27.908;2022-12-18T05:34:05;9.70;72.68
71039;SHT30;58692;43.212;27.908;2022-12-18T05:36:31;9.77;72.76
71039;SHT30;58692;43.212;27.908;2022-12-18T05:38:56;9.67;72.41
71039;SHT30;58692;43.212;27.908;2022-12-18T05:41:22;9.58;72.69
71039;SHT30;58692;43.212;27.908;2022-12-18T05:43:47;9.64;72.49
71039;SHT30;58692;43.212;27.908;2022-12-18T05:46:16;9.55;72.61
71039;SHT30;58692;43.212;27.908;2022-12-18T05:48:43;9.39;72.92
71039;SHT30;58692;43.212;27.908;2022-12-18T05:51:12;9.39;73.18
71039;SHT30;58692;43.212;27.908;2022-12-18T05:53:39;9.47;72.34
71039;SHT30;58692;43.212;27.908;2022-12-18T05:56:07;9.44;72.18
71039;SHT30;58692;43.212;27.908;2022-12-18T05:58:33;9.40;71.61
71039;SHT30;58692;43.212;27.908;2022-12-18T06:01:06;9.46;71.69
71039;SHT30;58692;43.212;27.908;2022-12-18T06:03:32;9.34;71.37
71039;SHT30;58692;43.212;27.908;2022-12-18T06:05:58;9.39;71.07
71039;SHT30;58692;43.212;27.908;2022-12-18T06:08:23;9.30;71.08
71039;SHT30;58692;43.212;27.908;2022-12-18T06:10:51;9.12;71.33
71039;SHT30;58692;43.212;27.908;2022-12-18T06:13:17;9.09;71.27
71039;SHT30;58692;43.212;27.908;2022-12-18T06:15:43;9.05;71.62
71039;SHT30;58692;43.212;27.908;2022-12-18T06:18:08;9.12;71.48
71039;SHT30;58692;43.212;27.908;2022-12-18T06:20:34;9.20;71.66
71039;SHT30;58692;43.212;27.908;2022-12-18T06:23:02;9.23;71.33
71039;SHT30;58692;43.212;27.908;2022-12-18T06:25:27;9.29;71.29
71039;SHT30;58692;43.212;27.908;2022-12-18T06:27:53;9.40;71.05
71039;SHT30;58692;43.212;27.908;2022-12-18T06:30:19;9.47;70.84
71039;SHT30;58692;43.212;27.908;2022-12-18T06:32:44;9.39;70.87
71039;SHT30;58692;43.212;27.908;2022-12-18T06:35:10;9.26;71.02
71039;SHT30;58692;43.212;27.908;2022-12-18T06:37:35;9.06;71.61
71039;SHT30;58692;43.212;27.908;2022-12-18T06:40:01;9.06;71.91
71039;SHT30;58692;43.212;27.908;2022-12-18T06:42:28;9.05;72.19
71039;SHT30;58692;43.212;27.908;2022-12-18T06:44:54;9.23;71.76
71039;SHT30;58692;43.212;27.908;2022-12-18T06:47:20;9.22;72.03
71039;SHT30;58692;43.212;27.908;2022-12-18T06:49:45;9.29;71.79
71039;SHT30;58692;43.212;27.908;2022-12-18T06:52:10;9.17;71.89
71039;SHT30;58692;43.212;27.908;2022-12-18T06:54:36;9.22;72.04
71039;SHT30;58692;43.212;27.908;2022-12-18T06:57:02;9.23;72.04
71039;SHT30;58692;43.212;27.908;2022-12-18T06:59:27;9.03;72.30
71039;SHT30;58692;43.212;27.908;2022-12-18T07:01:53;9.02;72.26
71039;SHT30;58692;43.212;27.908;2022-12-18T07:04:18;8.97;72.58
71039;SHT30;58692;43.212;27.908;2022-12-18T07:06:44;8.73;73.01
71039;SHT30;58692;43.212;27.908;2022-12-18T07:09:09;8.59;73.49
71039;SHT30;58692;43.212;27.908;2022-12-18T07:11:34;8.66;73.56
71039;SHT30;58692;43.212;27.908;2022-12-18T07:14:00;8.85;73.15
71039;SHT30;58692;43.212;27.908;2022-12-18T07:16:26;8.82;72.92
71039;SHT30;58692;43.212;27.908;2022-12-18T07:18:54;8.45;73.92
71039;SHT30;58692;43.212;27.908;2022-12-18T07:21:21;8.58;73.75
71039;SHT30;58692;43.212;27.908;2022-12-18T07:23:47;8.71;73.49
71039;SHT30;58692;43.212;27.908;2022-12-18T07:26:14;8.82;73.01
71039;SHT30;58692;43.212;27.908;2022-12-18T07:28:41;8.89;72.81
71039;SHT30;58692;43.212;27.908;2022-12-18T07:31:09;8.88;72.60
71039;SHT30;58692;43.212;27.908;2022-12-18T07:33:35;8.88;72.74
71039;SHT30;58692;43.212;27.908;2022-12-18T07:36:02;8.93;72.76
71039;SHT30;58692;43.212;27.908;2022-12-18T07:38:29;8.96;72.45
71039;SHT30;58692;43.212;27.908;2022-12-18T07:40:54;8.93;72.67
71039;SHT30;58692;43.212;27.908;2022-12-18T07:43:20;8.83;73.06
71039;SHT30;58692;43.212;27.908;2022-12-18T07:45:49;8.88;72.83
71039;SHT30;58692;43.212;27.908;2022-12-18T07:48:15;8.76;73.23
71039;SHT30;58692;43.212;27.908;2022-12-18T07:50:41;8.95;73.01
71039;SHT30;58692;43.212;27.908;2022-12-18T07:53:06;9.12;72.51
71039;SHT30;58692;43.212;27.908;2022-12-18T07:55:32;9.09;72.44
71039;SHT30;58692;43.212;27.908;2022-12-18T07:58:00;9.05;72.31
71039;SHT30;58692;43.212;27.908;2022-12-18T08:00:26;9.02;72.38
71039;SHT30;58692;43.212;27.908;2022-12-18T08:02:51;8.96;72.55
71039;SHT30;58692;43.212;27.908;2022-12-18T08:05:17;9.00;72.69
71039;SHT30;58692;43.212;27.908;2022-12-18T08:07:42;9.13;72.37
71039;SHT30;58692;43.212;27.908;2022-12-18T08:10:08;9.19;71.89
71039;SHT30;58692;43.212;27.908;2022-12-18T08:12:33;9.16;72.06
71039;SHT30;58692;43.212;27.908;2022-12-18T08:14:59;9.22;71.89
71039;SHT30;58692;43.212;27.908;2022-12-18T08:17:24;9.16;72.16
71039;SHT30;58692;43.212;27.908;2022-12-18T08:19:50;9.23;71.82
71039;SHT30;58692;43.212;27.908;2022-12-18T08:22:15;9.05;72.18
71039;SHT30;58692;43.212;27.908;2022-12-18T08:24:41;8.99;72.58
71039;SHT30;58692;43.212;27.908;2022-12-18T08:27:06;9.06;72.57
71039;SHT30;58692;43.212;27.908;2022-12-18T08:29:32;9.06;72.31
71039;SHT30;58692;43.212;27.908;2022-12-18T08:31:57;9.03;72.44
71039;SHT30;58692;43.212;27.908;2022-12-18T08:34:23;8.86;72.89
71039;SHT30;58692;43.212;27.908;2022-12-18T08:36:48;9.09;72.75
71039;SHT30;58692;43.212;27.908;2022-12-18T08:39:14;9.26;72.31
71039;SHT30;58692;43.212;27.908;2022-12-18T08:41:39;9.03;72.48
71039;SHT30;58692;43.212;27.908;2022-12-18T08:44:07;9.15;72.20
71039;SHT30;58692;43.212;27.908;2022-12-18T08:46:48;9.05;72.28
71039;SHT30;58692;43.212;27.908;2022-12-18T08:49:13;9.03;72.46
71039;SHT30;58692;43.212;27.908;2022-12-18T08:51:39;9.03;72.72
71039;SHT30;58692;43.212;27.908;2022-12-18T08:54:05;9.06;72.73
71039;SHT30;58692;43.212;27.908;2022-12-18T08:56:31;9.05;72.47
71039;SHT30;58692;43.212;27.908;2022-12-18T08:58:57;8.83;73.15
71039;SHT30;58692;43.212;27.908;2022-12-18T09:01:23;8.85;73.19
71039;SHT30;58692;43.212;27.908;2022-12-18T09:03:50;8.95;72.81
71039;SHT30;58692;43.212;27.908;2022-12-18T09:06:20;8.89;73.09
71039;SHT30;58692;43.212;27.908;2022-12-18T09:08:46;8.86;73.24
71039;SHT30;58692;43.212;27.908;2022-12-18T09:11:14;8.85;73.62
71039;SHT30;58692;43.212;27.908;2022-12-18T09:13:40;8.93;73.34
71039;SHT30;58692;43.212;27.908;2022-12-18T09:16:06;8.90;73.48
71039;SHT30;58692;43.212;27.908;2022-12-18T09:18:31;8.95;73.26
71039;SHT30;58692;43.212;27.908;2022-12-18T09:20:57;8.92;73.79
71039;SHT30;58692;43.212;27.908;2022-12-18T09:23:22;9.00;73.51
71039;SHT30;58692;43.212;27.908;2022-12-18T09:25:48;8.90;73.43
71039;SHT30;58692;43.212;27.908;2022-12-18T09:28:15;9.00;73.45
71039;SHT30;58692;43.212;27.908;2022-12-18T09:30:44;9.06;73.55
71039;SHT30;58692;43.212;27.908;2022-12-18T09:33:10;8.92;73.64
71039;SHT30;58692;43.212;27.908;2022-12-18T09:35:37;9.03;73.66
71039;SHT30;58692;43.212;27.908;2022-12-18T09:38:04;9.19;73.05
71039;SHT30;58692;43.212;27.908;2022-12-18T09:40:35;9.07;73.22
71039;SHT30;58692;43.212;27.908;2022-12-18T09:43:04;9.02;73.41
71039;SHT30;58692;43.212;27.908;2022-12-18T09:45:39;8.86;73.81
71039;SHT30;58692;43.212;27.908;2022-12-18T09:48:10;8.79;74.10
71039;SHT30;58692;43.212;27.908;2022-12-18T09:50:42;8.85;73.99
71039;SHT30;58692;43.212;27.908;2022-12-18T09:53:16;8.93;73.89
71039;SHT30;58692;43.212;27.908;2022-12-18T09:55:45;9.03;73.68
71039;SHT30;58692;43.212;27.908;2022-12-18T10:00:37;9.05;73.52
71039;SHT30;58692;43.212;27.908;2022-12-18T10:03:09;9.19;73.01
71039;SHT30;58692;43.212;27.908;2022-12-18T10:08:03;9.26;72.68
71039;SHT30;58692;43.212;27.908;2022-12-18T10:13:39;9.37;72.62
71039;SHT30;58692;43.212;27.908;2022-12-18T10:16:09;9.22;72.94
71039;SHT30;58692;43.212;27.908;2022-12-18T10:21:37;9.29;72.99
71039;SHT30;58692;43.212;27.908;2022-12-18T10:24:24;9.41;72.65
71039;SHT30;58692;43.212;27.908;2022-12-18T10:26:53;9.57;71.79
71039;SHT30;58692;43.212;27.908;2022-12-18T10:29:22;9.64;71.68
71039;SHT30;58692;43.212;27.908;2022-12-18T10:31:47;9.75;71.48
71039;SHT30;58692;43.212;27.908;2022-12-18T10:34:13;9.88;70.97
71039;SHT30;58692;43.212;27.908;2022-12-18T10:36:39;9.64;71.48
71039;SHT30;58692;43.212;27.908;2022-12-18T10:39:20;9.77;71.16
71039;SHT30;58692;43.212;27.908;2022-12-18T10:41:48;9.82;71.17
71039;SHT30;58692;43.212;27.908;2022-12-18T10:44:17;9.84;70.94
71039;SHT30;58692;43.212;27.908;2022-12-18T10:46:45;9.95;70.73
71039;SHT30;58692;43.212;27.908;2022-12-18T10:49:22;9.84;70.69
71039;SHT30;58692;43.212;27.908;2022-12-18T10:51:48;9.71;70.80
71039;SHT30;58692;43.212;27.908;2022-12-18T10:54:18;10.22;69.92
71039;SHT30;58692;43.212;27.908;2022-12-18T10:56:46;10.21;69.39
71039;SHT30;58692;43.212;27.908;2022-12-18T10:59:14;10.39;69.26
71039;SHT30;58692;43.212;27.908;2022-12-18T11:04:20;10.15;69.90
71039;SHT30;58692;43.212;27.908;2022-12-18T11:07:02;10.09;70.21
71039;SHT30;58692;43.212;27.908;2022-12-18T11:09:31;9.92;70.29
71039;SHT30;58692;43.212;27.908;2022-12-18T11:12:00;9.77;70.79
71039;SHT30;58692;43.212;27.908;2022-12-18T11:14:30;9.98;70.74
71039;SHT30;58692;43.212;27.908;2022-12-18T11:16:58;9.91;70.93
71039;SHT30;58692;43.212;27.908;2022-12-18T11:19:40;9.75;71.44
71039;SHT30;58692;43.212;27.908;2022-12-18T11:22:26;9.87;71.24
71039;SHT30;58692;43.212;27.908;2022-12-18T11:27:40;9.85;71.35
71039;SHT30;58692;43.212;27.908;2022-12-18T11:32:55;9.20;73.57
71039;SHT30;58692;43.212;27.908;2022-12-18T11:35:40;9.19;73.65
71039;SHT30;58692;43.212;27.908;2022-12-18T11:40:44;9.26;73.72
71039;SHT30;58692;43.212;27.908;2022-12-18T11:48:27;9.16;74.02
71039;SHT30;58692;43.212;27.908;2022-12-18T11:50:55;9.06;74.48
71039;SHT30;58692;43.212;27.908;2022-12-18T11:53:22;9.13;74.23
71039;SHT30;58692;43.212;27.908;2022-12-18T12:01:16;9.34;73.83
71039;SHT30;58692;43.212;27.908;2022-12-18T12:06:43;9.54;73.50
71039;SHT30;58692;43.212;27.908;2022-12-18T12:22:17;9.50;72.67
71039;SHT30;58692;43.212;27.908;2022-12-18T12:24:55;9.34;72.77
71039;SHT30;58692;43.212;27.908;2022-12-18T12:27:44;9.17;73.47
71039;SHT30;58692;43.212;27.908;2022-12-18T12:33:02;9.10;74.09
71039;SHT30;58692;43.212;27.908;2022-12-18T12:38:24;9.29;73.16
71039;SHT30;58692;43.212;27.908;2022-12-18T12:40:52;9.30;73.27
71039;SHT30;58692;43.212;27.908;2022-12-18T12:43:41;9.40;72.91
71039;SHT30;58692;43.212;27.908;2022-12-18T12:46:10;9.24;73.41
71039;SHT30;58692;43.212;27.908;2022-12-18T12:51:10;9.07;73.89
71039;SHT30;58692;43.212;27.908;2022-12-18T12:53:37;9.15;73.79
71039;SHT30;58692;43.212;27.908;2022-12-18T12:56:04;9.29;73.32
71039;SHT30;58692;43.212;27.908;2022-12-18T12:58:34;9.17;73.07
71039;SHT30;58692;43.212;27.908;2022-12-18T13:09:02;8.88;69.25
71039;SHT30;58692;43.212;27.908;2022-12-18T13:11:39;8.80;69.10
71039;SHT30;58692;43.212;27.908;2022-12-18T13:14:24;8.64;70.17
71039;SHT30;58692;43.212;27.908;2022-12-18T13:16:50;8.68;70.10
71039;SHT30;58692;43.212;27.908;2022-12-18T13:19:23;8.61;67.80
71039;SHT30;58692;43.212;27.908;2022-12-18T13:21:54;8.52;66.18
71039;SHT30;58692;43.212;27.908;2022-12-18T13:24:30;8.37;64.80
71039;SHT30;58692;43.212;27.908;2022-12-18T13:26:57;8.42;64.96
71039;SHT30;58692;43.212;27.908;2022-12-18T13:29:43;8.40;64.76
71039;SHT30;58692;43.212;27.908;2022-12-18T13:32:21;8.40;65.05
71039;SHT30;58692;43.212;27.908;2022-12-18T13:34:48;8.45;64.88
71039;SHT30;58692;43.212;27.908;2022-12-18T13:37:39;8.38;65.73
71039;SHT30;58692;43.212;27.908;2022-12-18T13:48:33;8.41;65.11
71039;SHT30;58692;43.212;27.908;2022-12-18T13:51:03;8.30;65.13
71039;SHT30;58692;43.212;27.908;2022-12-18T13:53:33;8.34;65.10
71039;SHT30;58692;43.212;27.908;2022-12-18T13:55:59;8.41;64.98
71039;SHT30;58692;43.212;27.908;2022-12-18T13:58:25;8.42;64.74
71039;SHT30;58692;43.212;27.908;2022-12-18T14:00:50;8.33;65.40
71039;SHT30;58692;43.212;27.908;2022-12-18T14:03:19;8.41;65.69
71039;SHT30;58692;43.212;27.908;2022-12-18T14:05:45;8.45;65.70
71039;SHT30;58692;43.212;27.908;2022-12-18T14:08:14;8.54;65.39
71039;SHT30;58692;43.212;27.908;2022-12-18T14:10:42;8.68;65.26
71039;SHT30;58692;43.212;27.908;2022-12-18T14:13:10;8.66;65.25
71039;SHT30;58692;43.212;27.908;2022-12-18T14:15:41;8.73;64.87
71039;SHT30;58692;43.212;27.908;2022-12-18T14:18:45;8.59;65.46
71039;SHT30;58692;43.212;27.908;2022-12-18T14:21:20;8.56;65.61
71039;SHT30;58692;43.212;27.908;2022-12-18T14:23:46;8.62;65.38
71039;SHT30;58692;43.212;27.908;2022-12-18T14:26:28;8.62;65.77
71039;SHT30;58692;43.212;27.908;2022-12-18T14:28:57;8.56;66.04
71039;SHT30;58692;43.212;27.908;2022-12-18T14:31:25;8.52;66.65
71039;SHT30;58692;43.212;27.908;2022-12-18T14:33:52;8.59;66.53
71039;SHT30;58692;43.212;27.908;2022-12-18T14:36:21;8.56;66.65
71039;SHT30;58692;43.212;27.908;2022-12-18T14:38:51;8.66;66.59
71039;SHT30;58692;43.212;27.908;2022-12-18T14:41:19;8.61;66.95
71039;SHT30;58692;43.212;27.908;2022-12-18T14:43:47;8.41;68.21
71039;SHT30;58692;43.212;27.908;2022-12-18T14:48:55;8.35;68.86
71039;SHT30;58692;43.212;27.908;2022-12-18T14:51:23;8.48;68.25
71039;SHT30;58692;43.212;27.908;2022-12-18T14:53:55;8.46;68.36
71039;SHT30;58692;43.212;27.908;2022-12-18T14:56:23;8.33;68.72
71039;SHT30;58692;43.212;27.908;2022-12-18T14:58:51;8.49;68.59
71039;SHT30;58692;43.212;27.908;2022-12-18T15:01:21;8.56;68.24
71039;SHT30;58692;43.212;27.908;2022-12-18T15:03:47;8.54;67.93
71039;SHT30;58692;43.212;27.908;2022-12-18T15:06:16;8.42;68.02
71039;SHT30;58692;43.212;27.908;2022-12-18T15:08:42;8.25;65.92
71039;SHT30;58692;43.212;27.908;2022-12-18T15:17:03;7.77;65.85
71039;SHT30;58692;43.212;27.908;2022-12-18T15:19:37;7.83;66.11
71039;SHT30;58692;43.212;27.908;2022-12-18T15:22:04;7.93;66.07
71039;SHT30;58692;43.212;27.908;2022-12-18T15:24:31;7.74;66.21
71039;SHT30;58692;43.212;27.908;2022-12-18T15:26:58;7.80;66.74
71039;SHT30;58692;43.212;27.908;2022-12-18T15:29:24;7.90;66.93
71039;SHT30;58692;43.212;27.908;2022-12-18T15:32:00;7.87;66.89
71039;SHT30;58692;43.212;27.908;2022-12-18T15:34:26;7.91;66.96
71039;SHT30;58692;43.212;27.908;2022-12-18T15:36:52;8.05;66.81
71039;SHT30;58692;43.212;27.908;2022-12-18T15:39:18;8.15;66.47
71039;SHT30;58692;43.212;27.908;2022-12-18T15:41:43;8.28;66.37
71039;SHT30;58692;43.212;27.908;2022-12-18T15:44:29;8.33;66.46
71039;SHT30;58692;43.212;27.908;2022-12-18T15:46:54;8.34;66.80
71039;SHT30;58692;43.212;27.908;2022-12-18T15:49:20;8.41;66.90
71039;SHT30;58692;43.212;27.908;2022-12-18T15:51:49;8.28;66.76
71039;SHT30;58692;43.212;27.908;2022-12-18T15:54:16;8.08;67.60
71039;SHT30;58692;43.212;27.908;2022-12-18T15:56:41;8.13;67.82
71039;SHT30;58692;43.212;27.908;2022-12-18T15:59:22;8.08;67.05
71039;SHT30;58692;43.212;27.908;2022-12-18T16:01:50;8.11;66.46
71039;SHT30;58692;43.212;27.908;2022-12-18T16:04:19;8.17;66.40
71039;SHT30;58692;43.212;27.908;2022-12-18T16:06:46;7.98;67.48
71039;SHT30;58692;43.212;27.908;2022-12-18T16:09:11;8.00;67.72
71039;SHT30;58692;43.212;27.908;2022-12-18T16:11:39;8.07;67.72
71039;SHT30;58692;43.212;27.908;2022-12-18T16:16:50;8.20;67.77
71039;SHT30;58692;43.212;27.908;2022-12-18T16:19:17;8.05;68.09
71039;SHT30;58692;43.212;27.908;2022-12-18T16:21:43;7.95;68.50
71039;SHT30;58692;43.212;27.908;2022-12-18T16:24:14;7.72;69.24
71039;SHT30;58692;43.212;27.908;2022-12-18T16:26:41;7.89;68.93
71039;SHT30;58692;43.212;27.908;2022-12-18T16:29:07;7.91;68.78
71039;SHT30;58692;43.212;27.908;2022-12-18T16:31:33;7.95;68.49
71039;SHT30;58692;43.212;27.908;2022-12-18T16:39:21;8.08;68.04
71039;SHT30;58692;43.212;27.908;2022-12-18T16:41:47;7.83;68.05
71039;SHT30;58692;43.212;27.908;2022-12-18T16:44:13;7.89;68.19
71039;SHT30;58692;43.212;27.908;2022-12-18T16:46:39;7.77;68.11
71039;SHT30;58692;43.212;27.908;2022-12-18T16:49:07;7.70;68.26
71039;SHT30;58692;43.212;27.908;2022-12-18T16:51:33;7.79;68.23
71039;SHT30;58692;43.212;27.908;2022-12-18T16:53:58;7.91;67.69
71039;SHT30;58692;43.212;27.908;2022-12-18T16:56:24;7.77;67.81
71039;SHT30;58692;43.212;27.908;2022-12-18T16:58:51;7.73;66.88
71039;SHT30;58692;43.212;27.908;2022-12-18T17:01:17;7.67;66.78
71039;SHT30;58692;43.212;27.908;2022-12-18T17:03:43;7.70;66.70
71039;SHT30;58692;43.212;27.908;2022-12-18T17:06:08;7.67;67.30
71039;SHT30;58692;43.212;27.908;2022-12-18T17:08:34;7.53;65.36
71039;SHT30;58692;43.212;27.908;2022-12-18T17:11:07;7.55;65.51
71039;SHT30;58692;43.212;27.908;2022-12-18T17:13:33;7.63;65.58
71039;SHT30;58692;43.212;27.908;2022-12-18T17:16:03;7.62;64.95
71039;SHT30;58692;43.212;27.908;2022-12-18T17:18:30;7.67;65.03
71039;SHT30;58692;43.212;27.908;2022-12-18T17:21:00;7.53;64.83
71039;SHT30;58692;43.212;27.908;2022-12-18T17:23:27;7.38;64.51
71039;SHT30;58692;43.212;27.908;2022-12-18T17:25:55;7.23;64.75
71039;SHT30;58692;43.212;27.908;2022-12-18T17:28:22;7.32;64.83
71039;SHT30;58692;43.212;27.908;2022-12-18T17:30:48;7.08;65.38
71039;SHT30;58692;43.212;27.908;2022-12-18T17:33:13;6.94;65.24